Time;durP1;ratioP1;P1;durP2;ratioP2;P2;SDS_P1;SDS_P2;PMS_P1;PMS_P2;Temp;Humidity;BMP_temperature;BMP_pressure;BME280_temperature;BME280_humidity;BME280_pressure;Samples;Min_cycle;Max_cycle;Signal;HPM_P1;HPM_P2
2023/01/18 00:00:52;;;;;;;0.35;0.35;;;12.00;73.80;;;;;;5014724;28;20030;-68
2023/01/18 00:03:18;;;;;;;0.50;0.40;;;12.00;73.70;;;;;;5012797;28;20081;-68
2023/01/18 00:05:43;;;;;;;0.82;0.40;;;12.00;73.70;;;;;;5013007;28;20034;-68
2023/01/18 00:08:10;;;;;;;0.32;0.32;;;12.00;73.70;;;;;;5014255;28;20029;-68
2023/01/18 00:10:36;;;;;;;0.40;0.40;;;12.00;73.70;;;;;;5015724;28;20118;-68
2023/01/18 00:13:01;;;;;;;0.32;0.32;;;12.00;73.70;;;;;;5033916;28;20098;-68
2023/01/18 00:15:27;;;;;;;0.30;0.30;;;12.00;73.70;;;;;;5034077;28;20021;-68
2023/01/18 00:17:52;;;;;;;0.88;0.50;;;12.00;73.80;;;;;;5033811;28;20168;-68
2023/01/18 00:20:20;;;;;;;0.40;0.40;;;12.00;73.70;;;;;;5015208;28;20642;-68
2023/01/18 00:22:46;;;;;;;0.95;0.40;;;12.00;73.70;;;;;;5012800;28;20041;-68
2023/01/18 00:25:12;;;;;;;0.82;0.40;;;12.00;73.70;;;;;;5013068;28;20472;-68
2023/01/18 00:27:37;;;;;;;0.22;0.22;;;12.00;73.70;;;;;;5012548;28;20030;-68
2023/01/18 00:30:04;;;;;;;0.40;0.30;;;12.00;73.70;;;;;;5012785;28;20021;-68
2023/01/18 00:32:30;;;;;;;0.30;0.30;;;12.00;73.70;;;;;;5012331;28;20073;-68
2023/01/18 00:34:55;;;;;;;0.40;0.40;;;12.00;73.80;;;;;;5012764;28;20481;-68
2023/01/18 00:37:23;;;;;;;0.30;0.30;;;12.00;73.70;;;;;;5013752;28;20022;-68
2023/01/18 00:39:49;;;;;;;1.27;0.38;;;12.00;73.70;;;;;;5012829;28;20053;-68
2023/01/18 00:44:59;;;;;;;0.30;0.30;;;12.00;73.70;;;;;;5012742;28;20061;-68
2023/01/18 00:47:25;;;;;;;0.22;0.22;;;12.00;73.80;;;;;;5013330;28;20457;-68
2023/01/18 00:49:51;;;;;;;0.28;0.28;;;12.00;73.80;;;;;;5012454;28;20097;-68
2023/01/18 00:52:17;;;;;;;0.60;0.38;;;12.00;73.70;;;;;;5012224;28;20492;-68
2023/01/18 00:54:42;;;;;;;0.28;0.28;;;12.00;73.70;;;;;;5013356;28;20057;-68
2023/01/18 00:57:08;;;;;;;0.20;0.20;;;12.00;73.70;;;;;;5013407;28;20057;-68
2023/01/18 00:59:34;;;;;;;0.60;0.45;;;12.00;73.70;;;;;;5012157;28;20041;-68
2023/01/18 01:01:59;;;;;;;0.30;0.30;;;12.00;73.70;;;;;;5012305;28;20072;-68
2023/01/18 01:07:09;;;;;;;0.40;0.40;;;12.00;73.70;;;;;;5011960;28;20077;-68
2023/01/18 01:09:35;;;;;;;0.43;0.30;;;12.00;73.70;;;;;;5011874;28;20018;-68
2023/01/18 01:26:12;;;;;;;0.30;0.30;;;12.00;73.70;;;;;;5012408;28;20072;-68
2023/01/18 01:28:42;;;;;;;0.32;0.30;;;12.00;73.60;;;;;;5011797;28;20500;-68
2023/01/18 01:31:09;;;;;;;0.30;0.30;;;12.00;73.60;;;;;;5011601;28;20042;-68
2023/01/18 01:33:34;;;;;;;0.30;0.30;;;12.00;73.70;;;;;;5011508;28;20054;-68
2023/01/18 01:36:02;;;;;;;0.35;0.32;;;12.00;73.70;;;;;;5013020;28;20485;-68
2023/01/18 01:38:28;;;;;;;0.73;0.30;;;12.00;73.60;;;;;;5011821;28;20026;-68
2023/01/18 01:41:08;;;;;;;0.80;0.32;;;12.00;73.70;;;;;;5011641;28;20030;-68
2023/01/18 01:43:46;;;;;;;0.20;0.20;;;12.00;73.60;;;;;;5011676;28;20018;-69
2023/01/18 01:46:38;;;;;;;0.40;0.30;;;12.00;73.70;;;;;;5011329;28;20022;-68
2023/01/18 01:49:10;;;;;;;1.15;0.40;;;12.00;73.70;;;;;;5012607;28;20034;-68
2023/01/18 01:51:40;;;;;;;0.40;0.30;;;12.00;73.70;;;;;;5011542;28;20022;-68
2023/01/18 01:54:10;;;;;;;0.40;0.30;;;12.00;73.70;;;;;;5012583;28;20366;-68
2023/01/18 01:56:35;;;;;;;0.10;0.10;;;12.00;73.70;;;;;;5011583;28;20388;-68
2023/01/18 01:59:01;;;;;;;0.57;0.40;;;12.00;73.70;;;;;;5011174;28;20030;-68
2023/01/18 02:01:27;;;;;;;0.30;0.30;;;12.00;73.60;;;;;;5011522;28;20076;-68
2023/01/18 02:03:54;;;;;;;0.20;0.20;;;12.00;73.60;;;;;;5011161;28;20106;-68
2023/01/18 02:06:30;;;;;;;0.40;0.40;;;12.00;73.60;;;;;;5011287;28;20117;-68
2023/01/18 02:08:59;;;;;;;0.50;0.30;;;12.00;73.60;;;;;;5012366;28;20052;-68
2023/01/18 02:11:25;;;;;;;0.38;0.30;;;12.00;73.70;;;;;;5022641;28;20041;-68
2023/01/18 02:13:50;;;;;;;0.40;0.40;;;12.00;73.70;;;;;;5030875;28;20025;-69
2023/01/18 02:16:37;;;;;;;0.22;0.22;;;12.00;73.70;;;;;;5031047;28;20026;-69
2023/01/18 02:19:24;;;;;;;0.30;0.30;;;11.90;73.60;;;;;;5023742;28;20054;-68
2023/01/18 02:22:10;;;;;;;0.40;0.20;;;12.00;73.40;;;;;;5012299;28;20072;-68
2023/01/18 02:25:09;;;;;;;0.35;0.30;;;11.90;73.40;;;;;;5011296;28;20097;-69
2023/01/18 02:28:01;;;;;;;0.30;0.30;;;12.00;73.50;;;;;;5012274;28;20507;-68
2023/01/18 02:30:53;;;;;;;0.32;0.32;;;12.00;73.50;;;;;;5011616;28;20029;-68
2023/01/18 02:33:44;;;;;;;0.40;0.40;;;11.90;73.50;;;;;;5012807;28;20022;-68
2023/01/18 02:36:10;;;;;;;0.25;0.25;;;11.90;73.50;;;;;;5014875;28;20389;-68
2023/01/18 02:38:43;;;;;;;0.73;0.45;;;11.90;73.50;;;;;;5014841;28;20033;-68
2023/01/18 02:41:15;;;;;;;0.80;0.30;;;11.90;73.50;;;;;;5014857;28;20200;-68
2023/01/18 02:46:34;;;;;;;0.30;0.30;;;11.90;73.50;;;;;;5014925;28;20041;-68
2023/01/18 02:49:01;;;;;;;0.90;0.30;;;12.00;73.50;;;;;;5014530;28;20065;-68
2023/01/18 02:51:26;;;;;;;1.02;0.40;;;12.00;73.50;;;;;;5014771;28;20026;-68
2023/01/18 02:53:52;;;;;;;1.20;0.20;;;12.00;73.50;;;;;;5015472;28;20108;-68
2023/01/18 02:56:26;;;;;;;0.38;0.25;;;12.00;73.50;;;;;;5015726;28;20026;-68
2023/01/18 02:58:58;;;;;;;0.28;0.28;;;11.90;73.50;;;;;;5014323;28;20026;-68
2023/01/18 03:01:32;;;;;;;0.35;0.35;;;12.00;73.50;;;;;;5014678;28;20021;-68
2023/01/18 03:04:07;;;;;;;0.57;0.30;;;12.00;73.50;;;;;;5014308;28;20054;-68
2023/01/18 03:06:33;;;;;;;0.30;0.30;;;11.90;73.50;;;;;;5015444;28;20022;-68
2023/01/18 03:08:59;;;;;;;0.75;0.40;;;11.90;73.50;;;;;;5014094;28;20037;-68
2023/01/18 03:11:48;;;;;;;0.38;0.25;;;12.00;73.50;;;;;;5024190;28;20032;-68
2023/01/18 03:14:30;;;;;;;0.90;0.43;;;12.00;73.50;;;;;;5034028;28;20022;-68
2023/01/18 03:17:21;;;;;;;0.82;0.40;;;11.90;73.50;;;;;;5034854;28;20040;-69
2023/01/18 03:25:45;;;;;;;0.77;0.40;;;11.90;73.40;;;;;;4979321;28;20133;-68
2023/01/18 03:34:16;;;;;;;0.50;0.30;;;11.90;73.50;;;;;;4979524;28;20029;-68
2023/01/18 03:36:46;;;;;;;0.30;0.30;;;11.90;73.50;;;;;;4977381;28;20038;-68
2023/01/18 03:39:18;;;;;;;0.57;0.28;;;11.90;73.50;;;;;;4977316;28;20038;-68
2023/01/18 03:41:46;;;;;;;0.20;0.20;;;11.90;73.40;;;;;;4976975;28;20081;-68
2023/01/18 03:44:24;;;;;;;0.50;0.47;;;11.90;73.50;;;;;;4975712;28;20056;-68
2023/01/18 03:46:50;;;;;;;0.50;0.35;;;11.90;73.50;;;;;;4976783;28;20109;-68
2023/01/18 03:49:16;;;;;;;0.68;0.22;;;11.90;73.40;;;;;;4993140;28;20030;-68
2023/01/18 03:51:47;;;;;;;0.20;0.20;;;12.00;73.50;;;;;;4976674;28;20535;-68
2023/01/18 03:54:22;;;;;;;0.57;0.30;;;11.90;73.50;;;;;;4976678;28;20026;-68
2023/01/18 03:56:48;;;;;;;0.30;0.30;;;11.90;73.50;;;;;;4993652;28;20034;-68
2023/01/18 03:59:14;;;;;;;0.20;0.20;;;11.90;73.40;;;;;;5014623;28;20104;-68
2023/01/18 04:01:40;;;;;;;0.40;0.40;;;11.90;73.40;;;;;;5013341;28;20079;-68
2023/01/18 04:04:05;;;;;;;0.30;0.22;;;11.90;73.40;;;;;;5013122;28;20049;-68
2023/01/18 04:06:32;;;;;;;0.75;0.47;;;11.90;73.40;;;;;;5013139;28;20034;-68
2023/01/18 04:08:57;;;;;;;0.20;0.20;;;11.90;73.40;;;;;;5013055;28;20029;-68
2023/01/18 04:11:23;;;;;;;0.63;0.35;;;11.90;73.40;;;;;;5023864;28;20100;-68
2023/01/18 04:13:49;;;;;;;0.30;0.30;;;11.90;73.40;;;;;;5033983;28;20036;-68
2023/01/18 04:16:14;;;;;;;0.52;0.22;;;11.90;73.30;;;;;;5016234;28;20028;-68
2023/01/18 04:18:40;;;;;;;0.45;0.30;;;11.90;73.30;;;;;;5027734;28;20076;-68
2023/01/18 04:21:06;;;;;;;1.05;0.20;;;11.90;73.40;;;;;;5012824;28;20504;-68
2023/01/18 04:23:31;;;;;;;0.22;0.20;;;11.90;73.30;;;;;;5012885;28;20041;-68
2023/01/18 04:25:57;;;;;;;0.63;0.30;;;11.90;73.30;;;;;;5013772;28;20034;-68
2023/01/18 04:28:25;;;;;;;0.30;0.20;;;11.90;73.30;;;;;;5013792;28;20026;-68
2023/01/18 04:30:52;;;;;;;0.38;0.20;;;11.90;73.30;;;;;;5013996;28;20025;-68
2023/01/18 04:33:19;;;;;;;0.30;0.30;;;11.90;73.40;;;;;;5012831;28;20407;-68
2023/01/18 04:35:45;;;;;;;0.20;0.20;;;11.90;73.30;;;;;;5013677;28;20029;-68
2023/01/18 04:38:11;;;;;;;0.93;0.40;;;11.90;73.40;;;;;;5012423;28;20029;-68
2023/01/18 04:40:36;;;;;;;0.57;0.30;;;11.90;73.30;;;;;;5013974;28;20034;-68
2023/01/18 04:43:03;;;;;;;0.95;0.30;;;11.90;73.30;;;;;;5013706;28;20030;-68
2023/01/18 04:45:29;;;;;;;0.30;0.20;;;11.90;73.30;;;;;;5013572;28;20026;-68
2023/01/18 04:47:54;;;;;;;0.40;0.20;;;11.90;73.30;;;;;;5013694;28;20022;-68
2023/01/18 04:50:20;;;;;;;0.25;0.10;;;11.90;73.30;;;;;;5013611;28;20048;-68
2023/01/18 04:52:46;;;;;;;0.30;0.30;;;11.90;73.30;;;;;;4995810;28;20030;-68
2023/01/18 04:55:14;;;;;;;0.25;0.22;;;11.90;73.40;;;;;;5012003;28;20049;-68
2023/01/18 04:57:43;;;;;;;1.30;0.30;;;11.90;73.30;;;;;;5012234;28;20091;-69
2023/01/18 05:00:10;;;;;;;0.20;0.20;;;11.90;73.40;;;;;;5013322;28;20037;-68
2023/01/18 05:02:36;;;;;;;0.32;0.30;;;11.90;73.30;;;;;;5012319;28;20029;-68
2023/01/18 05:05:03;;;;;;;0.20;0.20;;;11.90;73.40;;;;;;5012138;28;20058;-68
2023/01/18 05:07:30;;;;;;;0.75;0.17;;;11.90;73.30;;;;;;5011918;28;20179;-68
2023/01/18 05:09:55;;;;;;;0.50;0.30;;;11.90;73.30;;;;;;5012007;28;20030;-68
2023/01/18 05:12:21;;;;;;;0.30;0.10;;;11.90;73.30;;;;;;5029795;28;20036;-68
2023/01/18 05:14:47;;;;;;;0.22;0.22;;;11.90;73.40;;;;;;5032851;28;20037;-68
2023/01/18 05:17:13;;;;;;;0.65;0.20;;;11.90;73.30;;;;;;5033072;28;20030;-68
2023/01/18 05:19:39;;;;;;;0.40;0.30;;;11.90;73.30;;;;;;5019661;28;20029;-68
2023/01/18 05:22:05;;;;;;;0.47;0.30;;;11.90;73.30;;;;;;5011606;28;20580;-68
2023/01/18 05:24:31;;;;;;;0.20;0.20;;;11.90;73.30;;;;;;5011808;28;20062;-68
2023/01/18 05:26:57;;;;;;;0.20;0.20;;;11.90;73.30;;;;;;5011765;28;20057;-68
2023/01/18 05:29:23;;;;;;;0.20;0.20;;;11.90;73.30;;;;;;5011919;28;20050;-68
2023/01/18 05:31:48;;;;;;;1.00;0.40;;;11.90;73.30;;;;;;5011682;28;20101;-68
2023/01/18 05:34:14;;;;;;;0.40;0.30;;;11.90;73.20;;;;;;5011689;28;20030;-68
2023/01/18 05:36:40;;;;;;;0.68;0.30;;;11.90;73.30;;;;;;5012641;28;20018;-68
2023/01/18 05:39:05;;;;;;;0.20;0.20;;;11.90;73.30;;;;;;5013013;28;20072;-68
2023/01/18 05:41:31;;;;;;;0.20;0.20;;;11.90;73.20;;;;;;5012749;28;20075;-68
2023/01/18 05:43:56;;;;;;;0.20;0.20;;;11.90;73.30;;;;;;5012696;28;20030;-68
2023/01/18 05:46:22;;;;;;;0.80;0.20;;;11.90;73.30;;;;;;5011466;28;20037;-68
2023/01/18 05:48:48;;;;;;;0.40;0.30;;;11.90;73.20;;;;;;5011484;28;20033;-68
2023/01/18 05:51:13;;;;;;;0.20;0.20;;;11.90;73.20;;;;;;5012645;28;20485;-68
2023/01/18 05:53:40;;;;;;;0.10;0.10;;;11.90;73.20;;;;;;5012681;28;20538;-68
2023/01/18 05:56:06;;;;;;;0.30;0.30;;;11.90;73.30;;;;;;5012426;28;20023;-68
2023/01/18 05:58:32;;;;;;;0.60;0.22;;;11.90;73.30;;;;;;5011605;28;20025;-68
2023/01/18 06:00:58;;;;;;;0.20;0.15;;;11.90;73.20;;;;;;5011329;28;20026;-68
2023/01/18 06:03:24;;;;;;;0.13;0.13;;;11.90;73.30;;;;;;5012720;28;20460;-68
2023/01/18 06:05:52;;;;;;;0.30;0.20;;;11.90;73.20;;;;;;5011228;28;20032;-68
2023/01/18 06:08:18;;;;;;;0.68;0.20;;;11.90;73.20;;;;;;5013096;28;20033;-68
2023/01/18 06:10:50;;;;;;;0.40;0.28;;;11.90;73.20;;;;;;5019833;28;20017;-68
2023/01/18 06:13:16;;;;;;;0.40;0.20;;;11.90;73.30;;;;;;5068325;28;20033;-68
2023/01/18 06:15:42;;;;;;;0.25;0.25;;;11.90;73.20;;;;;;5036135;28;20025;-68
2023/01/18 06:18:07;;;;;;;0.20;0.20;;;11.90;73.20;;;;;;5035477;28;20117;-68
2023/01/18 06:20:33;;;;;;;0.50;0.20;;;11.90;73.20;;;;;;5016203;28;20057;-68
2023/01/18 06:22:59;;;;;;;0.17;0.17;;;11.90;73.20;;;;;;5015023;28;20040;-68
2023/01/18 06:25:24;;;;;;;0.75;0.40;;;11.80;73.10;;;;;;5015087;28;20029;-68
2023/01/18 06:27:50;;;;;;;0.25;0.20;;;11.80;73.10;;;;;;5016088;28;20487;-68
2023/01/18 06:30:16;;;;;;;0.10;0.10;;;11.90;73.20;;;;;;5015116;28;20457;-68
2023/01/18 06:32:42;;;;;;;0.15;0.10;;;11.90;73.20;;;;;;5015004;28;20033;-68
2023/01/18 06:35:08;;;;;;;0.20;0.20;;;11.90;73.20;;;;;;5015979;28;20424;-68
2023/01/18 06:37:34;;;;;;;0.30;0.30;;;11.90;73.20;;;;;;5015993;28;20400;-68
2023/01/18 06:39:59;;;;;;;0.20;0.20;;;11.80;73.10;;;;;;5016030;28;20038;-68
2023/01/18 06:42:25;;;;;;;0.10;0.10;;;11.90;73.20;;;;;;5015992;28;20030;-68
2023/01/18 06:44:50;;;;;;;0.10;0.10;;;11.90;73.10;;;;;;5015920;28;20037;-68
2023/01/18 06:47:18;;;;;;;0.22;0.22;;;11.80;73.10;;;;;;5015982;28;20026;-68
2023/01/18 06:49:47;;;;;;;0.40;0.10;;;11.90;73.10;;;;;;5015654;28;20018;-68
2023/01/18 06:52:14;;;;;;;0.20;0.20;;;11.90;73.10;;;;;;5014553;28;20026;-68
2023/01/18 06:54:40;;;;;;;0.17;0.17;;;11.90;73.10;;;;;;5014555;28;20055;-68
2023/01/18 06:57:05;;;;;;;0.20;0.20;;;11.90;73.10;;;;;;5014354;28;20436;-68
2023/01/18 06:59:31;;;;;;;0.10;0.10;;;11.80;73.10;;;;;;5015788;28;20492;-68
2023/01/18 07:01:56;;;;;;;0.13;0.13;;;11.90;73.10;;;;;;5015626;28;20053;-68
2023/01/18 07:04:22;;;;;;;0.20;0.20;;;11.80;73.00;;;;;;5014057;28;20042;-68
2023/01/18 07:06:48;;;;;;;0.90;0.20;;;11.80;73.00;;;;;;5014638;28;20057;-68
2023/01/18 07:09:13;;;;;;;0.17;0.10;;;11.90;73.10;;;;;;5014310;28;20072;-68
2023/01/18 07:11:42;;;;;;;0.13;0.13;;;11.90;73.10;;;;;;5027369;28;20030;-68
2023/01/18 07:14:09;;;;;;;0.10;0.10;;;11.90;73.10;;;;;;5033985;28;20018;-68
2023/01/18 07:16:35;;;;;;;0.45;0.20;;;11.80;73.10;;;;;;5034068;28;20026;-68
2023/01/18 07:19:02;;;;;;;0.57;0.20;;;11.90;73.10;;;;;;5025302;28;20022;-68
2023/01/18 07:21:28;;;;;;;0.00;0.00;;;11.90;73.10;;;;;;5015185;28;20029;-68
2023/01/18 07:23:54;;;;;;;0.10;0.10;;;11.90;73.00;;;;;;5015184;28;20026;-68
2023/01/18 07:26:20;;;;;;;0.10;0.10;;;11.80;73.00;;;;;;5013931;28;20117;-68
2023/01/18 07:28:46;;;;;;;0.22;0.22;;;11.80;73.00;;;;;;5015170;28;20033;-68
2023/01/18 07:31:11;;;;;;;0.38;0.30;;;11.80;73.00;;;;;;5014181;28;20102;-68
2023/01/18 07:33:37;;;;;;;0.15;0.15;;;11.80;73.00;;;;;;5013528;28;20093;-68
2023/01/18 07:36:05;;;;;;;0.10;0.10;;;11.80;73.00;;;;;;5014994;28;20034;-68
2023/01/18 07:38:30;;;;;;;0.65;0.20;;;11.80;73.00;;;;;;5013802;28;20100;-68
2023/01/18 07:41:00;;;;;;;0.20;0.13;;;11.80;73.00;;;;;;5013704;28;20488;-68
2023/01/18 07:43:26;;;;;;;0.35;0.20;;;11.80;73.00;;;;;;5013599;28;20026;-68
2023/01/18 07:45:56;;;;;;;0.10;0.10;;;11.80;73.10;;;;;;5013586;28;20132;-68
2023/01/18 07:48:25;;;;;;;0.13;0.10;;;11.80;73.00;;;;;;5013223;28;20076;-68
2023/01/18 07:50:55;;;;;;;0.15;0.15;;;11.80;73.00;;;;;;5013513;28;20113;-68
2023/01/18 07:53:21;;;;;;;0.10;0.10;;;11.80;73.00;;;;;;5013561;28;20076;-68
2023/01/18 07:55:47;;;;;;;0.20;0.10;;;11.80;73.00;;;;;;5013314;28;20032;-68
2023/01/18 07:58:13;;;;;;;0.10;0.10;;;11.80;73.00;;;;;;5013222;28;20029;-68
2023/01/18 08:00:38;;;;;;;0.10;0.10;;;11.80;73.00;;;;;;5014687;28;20551;-68
2023/01/18 08:03:04;;;;;;;0.00;0.00;;;11.80;73.00;;;;;;5014180;28;20053;-68
2023/01/18 08:05:33;;;;;;;0.08;0.08;;;11.80;73.00;;;;;;5031172;28;20045;-68
2023/01/18 08:07:59;;;;;;;0.25;0.10;;;11.80;73.00;;;;;;5032842;28;20093;-68
2023/01/18 08:10:26;;;;;;;0.32;0.20;;;11.80;73.00;;;;;;5033944;28;20025;-68
2023/01/18 08:12:51;;;;;;;0.10;0.10;;;11.80;73.00;;;;;;5034085;28;20014;-68
2023/01/18 08:15:17;;;;;;;0.20;0.20;;;11.80;73.00;;;;;;5033130;28;20055;-68
2023/01/18 08:17:43;;;;;;;0.13;0.10;;;11.80;73.00;;;;;;5033612;28;20087;-68
2023/01/18 08:20:09;;;;;;;0.20;0.13;;;11.80;73.00;;;;;;5032907;28;20057;-68
2023/01/18 08:22:35;;;;;;;0.13;0.13;;;11.80;73.00;;;;;;5033972;28;20032;-68
2023/01/18 08:25:01;;;;;;;0.00;0.00;;;11.80;73.00;;;;;;5032722;28;20025;-68
2023/01/18 08:27:27;;;;;;;0.35;0.20;;;11.80;73.00;;;;;;5016135;28;20021;-68
2023/01/18 08:29:53;;;;;;;0.10;0.10;;;11.80;73.00;;;;;;5033567;28;20026;-68
2023/01/18 08:32:18;;;;;;;0.28;0.20;;;11.80;73.00;;;;;;5032891;28;20423;-68
2023/01/18 08:34:44;;;;;;;0.20;0.20;;;11.80;73.00;;;;;;5033630;28;20488;-69
2023/01/18 08:37:10;;;;;;;0.20;0.10;;;11.80;73.00;;;;;;5033506;28;20534;-68
2023/01/18 08:39:36;;;;;;;0.22;0.20;;;11.80;73.00;;;;;;5016205;28;20416;-68
2023/01/18 08:42:02;;;;;;;0.20;0.20;;;11.80;73.00;;;;;;5033578;28;20041;-68
2023/01/18 08:44:28;;;;;;;0.20;0.20;;;11.80;73.00;;;;;;5033335;28;20022;-68
2023/01/18 08:46:54;;;;;;;0.30;0.10;;;11.80;73.00;;;;;;5033123;28;20071;-68
2023/01/18 08:49:19;;;;;;;0.20;0.20;;;11.80;73.00;;;;;;5033510;28;20028;-68
2023/01/18 08:51:45;;;;;;;0.10;0.10;;;11.80;73.00;;;;;;5032148;28;20409;-68
2023/01/18 08:54:10;;;;;;;0.10;0.10;;;11.80;73.00;;;;;;5033326;28;20464;-68
2023/01/18 08:56:36;;;;;;;0.10;0.10;;;11.80;73.00;;;;;;5033371;28;20017;-68
2023/01/18 08:59:02;;;;;;;0.25;0.25;;;11.80;73.00;;;;;;5031902;28;20553;-68
2023/01/18 09:01:28;;;;;;;0.20;0.20;;;11.80;73.00;;;;;;5031741;28;20018;-68
2023/01/18 09:03:54;;;;;;;0.30;0.20;;;11.80;73.00;;;;;;5032986;28;20504;-68
2023/01/18 09:06:20;;;;;;;0.10;0.10;;;11.80;73.00;;;;;;5032988;28;20108;-68
2023/01/18 09:08:46;;;;;;;0.50;0.13;;;11.80;73.00;;;;;;5031870;28;20160;-68
2023/01/18 09:11:12;;;;;;;0.10;0.10;;;11.80;73.00;;;;;;5032939;28;20032;-68
2023/01/18 09:13:40;;;;;;;0.32;0.20;;;11.80;73.00;;;;;;5031637;28;20034;-68
2023/01/18 09:16:06;;;;;;;0.13;0.13;;;11.80;73.00;;;;;;5032898;28;20097;-68
2023/01/18 09:18:32;;;;;;;0.43;0.43;;;11.80;73.00;;;;;;5029107;28;20018;-69
2023/01/18 09:20:58;;;;;;;0.38;0.30;;;11.80;73.00;;;;;;5012892;28;20451;-68
2023/01/18 09:23:24;;;;;;;0.22;0.15;;;11.80;73.00;;;;;;5011957;28;20497;-68
2023/01/18 09:26:01;;;;;;;0.28;0.28;;;11.80;72.90;;;;;;5011882;28;20539;-69
2023/01/18 09:28:26;;;;;;;0.20;0.20;;;11.80;72.90;;;;;;5012649;28;20033;-68
2023/01/18 09:30:52;;;;;;;0.65;0.20;;;11.80;73.00;;;;;;5012874;28;20389;-68
2023/01/18 09:33:18;;;;;;;0.20;0.10;;;11.80;72.90;;;;;;5012982;28;20053;-68
2023/01/18 09:35:44;;;;;;;0.17;0.13;;;11.80;73.00;;;;;;5012813;28;20048;-68
2023/01/18 09:38:11;;;;;;;0.15;0.15;;;11.80;72.90;;;;;;5012805;28;20054;-68
2023/01/18 09:40:43;;;;;;;0.47;0.20;;;11.80;73.00;;;;;;5013079;28;20388;-68
2023/01/18 09:43:30;;;;;;;0.20;0.20;;;11.80;72.90;;;;;;5011368;28;20080;-68
2023/01/18 09:45:55;;;;;;;0.45;0.28;;;11.80;72.90;;;;;;5011664;28;20021;-68
2023/01/18 09:48:36;;;;;;;0.22;0.20;;;11.80;72.90;;;;;;5011457;28;20041;-68
2023/01/18 09:51:06;;;;;;;0.70;0.20;;;11.80;73.00;;;;;;5011547;28;20026;-68
2023/01/18 09:54:08;;;;;;;0.40;0.40;;;11.80;72.90;;;;;;5011661;28;20026;-68
2023/01/18 09:57:00;;;;;;;0.22;0.22;;;11.80;72.90;;;;;;4990996;28;20065;-68
2023/01/18 09:59:36;;;;;;;0.10;0.10;;;11.80;72.90;;;;;;4951865;29;20498;-68
2023/01/18 10:02:06;;;;;;;0.20;0.20;;;11.80;72.90;;;;;;4952272;29;20039;-68
2023/01/18 10:04:35;;;;;;;0.10;0.10;;;11.80;72.90;;;;;;4958343;28;20038;-68
2023/01/18 10:07:07;;;;;;;0.20;0.20;;;11.80;72.90;;;;;;4971252;28;20038;-68
2023/01/18 10:09:38;;;;;;;0.30;0.10;;;11.80;72.90;;;;;;4971396;28;20034;-68
2023/01/18 10:12:25;;;;;;;0.38;0.38;;;11.80;72.90;;;;;;4971220;28;20039;-68
2023/01/18 10:15:06;;;;;;;0.35;0.30;;;11.80;73.00;;;;;;4971363;28;20456;-69
2023/01/18 10:17:39;;;;;;;0.30;0.20;;;11.80;72.90;;;;;;4971415;28;20039;-68
2023/01/18 10:20:27;;;;;;;0.10;0.10;;;11.80;73.00;;;;;;4967982;28;20039;-68
2023/01/18 10:23:02;;;;;;;0.20;0.13;;;11.80;73.00;;;;;;4952139;29;20533;-68
2023/01/18 10:25:32;;;;;;;0.20;0.20;;;11.80;72.90;;;;;;4967047;28;20039;-68
2023/01/18 10:27:57;;;;;;;0.22;0.20;;;11.80;72.90;;;;;;4968083;28;20110;-68
2023/01/18 10:31:02;;;;;;;0.20;0.20;;;11.80;73.00;;;;;;4952071;29;20122;-68
2023/01/18 10:33:32;;;;;;;0.43;0.30;;;11.80;72.90;;;;;;4951981;29;20039;-68
2023/01/18 10:36:05;;;;;;;0.20;0.13;;;11.70;72.90;;;;;;4987325;28;20037;-68
2023/01/18 10:38:30;;;;;;;0.20;0.20;;;11.80;73.00;;;;;;5011154;28;20100;-68
2023/01/18 10:41:00;;;;;;;0.30;0.28;;;11.80;73.00;;;;;;5010998;28;20496;-68
2023/01/18 10:43:27;;;;;;;0.75;0.20;;;11.80;73.00;;;;;;5012304;28;20488;-68
2023/01/18 10:45:53;;;;;;;0.25;0.25;;;11.80;73.00;;;;;;5011100;28;20038;-68
2023/01/18 10:48:19;;;;;;;0.20;0.20;;;11.80;72.90;;;;;;5010885;28;20037;-68
2023/01/18 10:50:46;;;;;;;0.43;0.30;;;11.80;73.00;;;;;;5012047;28;20026;-68
2023/01/18 10:53:32;;;;;;;0.32;0.20;;;11.80;73.00;;;;;;5011221;28;20106;-68
2023/01/18 10:56:16;;;;;;;0.20;0.20;;;11.80;72.90;;;;;;5014490;28;20480;-68
2023/01/18 10:58:57;;;;;;;0.63;0.30;;;11.80;72.90;;;;;;5014459;28;20022;-68
2023/01/18 11:01:33;;;;;;;0.20;0.20;;;11.80;73.00;;;;;;5014336;28;20395;-68
2023/01/18 11:24:37;;;;;;;0.38;0.30;;;11.80;72.00;;;;;;6168507;22;1331832;-71
2023/01/18 11:27:10;;;;;;;0.60;0.43;;;11.90;72.30;;;;;;6223470;23;20301;-71
2023/01/18 11:29:40;;;;;;;0.60;0.40;;;11.90;72.60;;;;;;6198021;23;20005;-71
2023/01/18 11:32:14;;;;;;;0.65;0.50;;;11.80;72.60;;;;;;6221889;23;20015;-71
2023/01/18 11:34:42;;;;;;;0.32;0.30;;;11.80;72.70;;;;;;6198593;23;20007;-71
2023/01/18 11:37:33;;;;;;;0.50;0.40;;;11.80;72.70;;;;;;6197231;23;20051;-71
2023/01/18 11:39:59;;;;;;;0.55;0.40;;;11.80;72.80;;;;;;6197943;23;20317;-71
2023/01/18 11:42:33;;;;;;;1.75;0.90;;;11.70;72.80;;;;;;6221619;23;20011;-71
2023/01/18 11:45:14;;;;;;;0.35;0.32;;;11.80;72.80;;;;;;6221953;23;20004;-71
2023/01/18 11:47:49;;;;;;;0.70;0.50;;;11.80;72.80;;;;;;6223334;23;20057;-71
2023/01/18 11:50:44;;;;;;;0.45;0.40;;;11.70;72.80;;;;;;6223251;23;20000;-71
2023/01/18 11:53:32;;;;;;;1.38;0.50;;;11.70;72.80;;;;;;6221776;23;20371;-71
2023/01/18 11:56:22;;;;;;;0.90;0.55;;;11.70;72.80;;;;;;6221920;23;20424;-71
2023/01/18 11:58:48;;;;;;;0.50;0.50;;;11.70;72.80;;;;;;6201223;23;19996;-71
2023/01/18 12:01:35;;;;;;;0.93;0.40;;;11.70;72.80;;;;;;6221577;23;20001;-71
2023/01/18 12:04:13;;;;;;;0.30;0.30;;;11.70;72.80;;;;;;6222963;23;20000;-71
2023/01/18 12:07:04;;;;;;;0.85;0.50;;;11.70;72.80;;;;;;6221646;23;20000;-71
2023/01/18 12:09:47;;;;;;;0.70;0.55;;;11.70;72.80;;;;;;6223135;23;20027;-71
2023/01/18 12:12:21;;;;;;;0.30;0.30;;;11.70;72.80;;;;;;6196351;23;20009;-71
2023/01/18 12:14:50;;;;;;;0.50;0.50;;;11.70;72.90;;;;;;6221581;23;19996;-71
2023/01/18 12:17:37;;;;;;;2.10;0.80;;;11.70;72.90;;;;;;6222849;23;20332;-71
2023/01/18 12:20:26;;;;;;;0.60;0.45;;;11.70;72.80;;;;;;6221393;23;20001;-71
2023/01/18 12:23:04;;;;;;;0.80;0.75;;;11.70;72.80;;;;;;6221718;23;20024;-71
2023/01/18 12:25:46;;;;;;;0.70;0.70;;;11.70;72.90;;;;;;6216220;23;20459;-71
2023/01/18 12:28:46;;;;;;;0.77;0.50;;;11.70;72.80;;;;;;6214714;23;20103;-71
2023/01/18 12:31:31;;;;;;;1.25;0.55;;;11.70;72.80;;;;;;6192425;23;20090;-71
2023/01/18 12:33:56;;;;;;;0.73;0.50;;;11.70;72.90;;;;;;6215883;23;20024;-71
2023/01/18 12:36:28;;;;;;;1.65;0.73;;;11.70;72.90;;;;;;6216048;23;20000;-71
2023/01/18 12:38:54;;;;;;;2.03;0.60;;;11.70;72.80;;;;;;6214615;23;20020;-71
2023/01/18 12:41:44;;;;;;;1.83;0.73;;;11.70;72.80;;;;;;6215753;23;20452;-71
2023/01/18 12:44:51;;;;;;;0.88;0.50;;;11.70;72.90;;;;;;6192443;23;20344;-71
2023/01/18 12:47:38;;;;;;;0.65;0.50;;;11.70;72.90;;;;;;6094827;23;20498;-71
2023/01/18 12:50:15;;;;;;;0.45;0.40;;;11.70;72.80;;;;;;6094837;23;20010;-71
2023/01/18 12:52:47;;;;;;;0.70;0.47;;;11.70;72.80;;;;;;6072654;23;20013;-71
2023/01/18 12:55:19;;;;;;;1.20;0.70;;;11.70;72.90;;;;;;6070781;23;20090;-71
2023/01/18 12:57:46;;;;;;;;;;;11.70;72.80;;;;;;6071975;23;20070;-71
2023/01/18 13:00:21;;;;;;;0.88;0.50;;;11.70;72.90;;;;;;6094776;23;19954;-71
2023/01/18 13:02:49;;;;;;;0.40;0.40;;;11.70;72.80;;;;;;6071430;23;20011;-71
2023/01/18 13:05:22;;;;;;;1.35;0.70;;;11.70;72.70;;;;;;6071147;23;20010;-71
2023/01/18 13:08:13;;;;;;;1.75;0.52;;;11.70;72.70;;;;;;6071542;23;20450;-71
2023/01/18 13:10:39;;;;;;;1.73;0.60;;;11.70;72.70;;;;;;6074628;23;20033;-71
2023/01/18 13:13:04;;;;;;;1.35;0.60;;;11.70;72.70;;;;;;6070754;23;20490;-71
2023/01/18 13:15:33;;;;;;;1.10;0.70;;;11.70;72.70;;;;;;6070753;23;20126;-71
2023/01/18 13:18:30;;;;;;;1.17;0.68;;;11.70;72.70;;;;;;6094599;23;20003;-71
2023/01/18 13:20:56;;;;;;;0.82;0.60;;;11.70;72.60;;;;;;6127254;23;20007;-71
2023/01/18 13:23:37;;;;;;;0.70;0.70;;;11.70;72.70;;;;;;6215453;23;20079;-71
2023/01/18 13:26:17;;;;;;;0.60;0.60;;;11.70;72.70;;;;;;6213994;23;20000;-71
2023/01/18 13:28:45;;;;;;;1.30;0.68;;;11.70;72.70;;;;;;6214312;23;20036;-71
2023/01/18 13:31:10;;;;;;;1.30;0.70;;;11.70;72.60;;;;;;6189498;23;20004;-71
2023/01/18 13:33:39;;;;;;;0.98;0.60;;;11.70;72.60;;;;;;6189235;23;20071;-71
2023/01/18 13:36:06;;;;;;;1.52;0.60;;;11.70;72.60;;;;;;6213543;23;20000;-71
2023/01/18 13:38:37;;;;;;;1.27;0.57;;;11.70;72.60;;;;;;6213947;23;20023;-71
2023/01/18 13:41:06;;;;;;;0.70;0.40;;;11.70;72.60;;;;;;6189999;23;20028;-71
2023/01/18 13:43:46;;;;;;;0.50;0.47;;;11.70;72.60;;;;;;6214162;23;20004;-71
2023/01/18 13:46:21;;;;;;;0.75;0.50;;;11.70;72.60;;;;;;6214054;23;20004;-71
2023/01/18 13:49:01;;;;;;;0.55;0.50;;;11.70;72.60;;;;;;6215826;23;20011;-71
2023/01/18 13:51:38;;;;;;;0.60;0.60;;;11.70;72.60;;;;;;6214027;23;20030;-71
2023/01/18 13:54:08;;;;;;;0.95;0.55;;;11.70;72.60;;;;;;6215044;23;20322;-71
2023/01/18 13:56:35;;;;;;;1.25;0.70;;;11.80;72.60;;;;;;6215329;23;19997;-71
2023/01/18 13:59:22;;;;;;;0.47;0.43;;;11.70;72.50;;;;;;6189173;23;20036;-71